sensor_id;sensor_type;location;lat;lon;timestamp;P1;durP1;ratioP1;P2;durP2;ratioP2
76608;SDS011;65928;53.936;27.540;2024-03-02T00:00:10;29.80;;;18.90;;
76608;SDS011;65928;53.936;27.540;2024-03-02T00:02:42;31.48;;;19.98;;
76608;SDS011;65928;53.936;27.540;2024-03-02T00:05:09;29.05;;;18.83;;
76608;SDS011;65928;53.936;27.540;2024-03-02T00:07:36;27.17;;;16.85;;
76608;SDS011;65928;53.936;27.540;2024-03-02T00:10:04;30.80;;;19.00;;
76608;SDS011;65928;53.936;27.540;2024-03-02T00:12:35;32.58;;;20.15;;
76608;SDS011;65928;53.936;27.540;2024-03-02T00:15:01;29.42;;;19.35;;
76608;SDS011;65928;53.936;27.540;2024-03-02T00:17:27;27.95;;;18.55;;
76608;SDS011;65928;53.936;27.540;2024-03-02T00:19:54;29.67;;;17.08;;
76608;SDS011;65928;53.936;27.540;2024-03-02T00:22:19;28.13;;;17.92;;
76608;SDS011;65928;53.936;27.540;2024-03-02T00:24:45;31.67;;;19.70;;
76608;SDS011;65928;53.936;27.540;2024-03-02T00:27:10;29.95;;;18.58;;
76608;SDS011;65928;53.936;27.540;2024-03-02T00:29:38;31.13;;;19.33;;
76608;SDS011;65928;53.936;27.540;2024-03-02T00:32:07;29.48;;;20.17;;
76608;SDS011;65928;53.936;27.540;2024-03-02T00:37:03;27.83;;;17.25;;
76608;SDS011;65928;53.936;27.540;2024-03-02T00:39:28;31.35;;;19.95;;
76608;SDS011;65928;53.936;27.540;2024-03-02T00:41:54;35.78;;;19.73;;
76608;SDS011;65928;53.936;27.540;2024-03-02T00:44:19;33.55;;;20.23;;
76608;SDS011;65928;53.936;27.540;2024-03-02T00:46:46;32.67;;;19.35;;
76608;SDS011;65928;53.936;27.540;2024-03-02T00:49:14;29.23;;;18.58;;
76608;SDS011;65928;53.936;27.540;2024-03-02T00:51:52;27.58;;;19.70;;
76608;SDS011;65928;53.936;27.540;2024-03-02T00:54:22;31.17;;;19.67;;
76608;SDS011;65928;53.936;27.540;2024-03-02T00:56:49;32.50;;;20.73;;
76608;SDS011;65928;53.936;27.540;2024-03-02T00:59:15;30.30;;;18.92;;
76608;SDS011;65928;53.936;27.540;2024-03-02T01:01:41;30.77;;;19.95;;
76608;SDS011;65928;53.936;27.540;2024-03-02T01:04:07;32.85;;;20.02;;
76608;SDS011;65928;53.936;27.540;2024-03-02T01:06:32;30.52;;;19.42;;
76608;SDS011;65928;53.936;27.540;2024-03-02T01:08:58;32.17;;;20.30;;
76608;SDS011;65928;53.936;27.540;2024-03-02T01:11:23;33.33;;;20.33;;
76608;SDS011;65928;53.936;27.540;2024-03-02T01:13:48;28.75;;;19.55;;
76608;SDS011;65928;53.936;27.540;2024-03-02T01:16:14;30.60;;;20.10;;
76608;SDS011;65928;53.936;27.540;2024-03-02T01:18:40;35.13;;;21.33;;
76608;SDS011;65928;53.936;27.540;2024-03-02T01:21:06;32.53;;;20.23;;
76608;SDS011;65928;53.936;27.540;2024-03-02T01:23:31;30.27;;;20.40;;
76608;SDS011;65928;53.936;27.540;2024-03-02T01:25:57;31.60;;;19.52;;
76608;SDS011;65928;53.936;27.540;2024-03-02T01:28:22;35.10;;;20.08;;
76608;SDS011;65928;53.936;27.540;2024-03-02T01:30:48;32.53;;;19.90;;
76608;SDS011;65928;53.936;27.540;2024-03-02T01:33:14;31.65;;;20.25;;
76608;SDS011;65928;53.936;27.540;2024-03-02T01:35:39;30.50;;;19.42;;
76608;SDS011;65928;53.936;27.540;2024-03-02T01:38:05;34.80;;;21.55;;
76608;SDS011;65928;53.936;27.540;2024-03-02T01:40:36;32.55;;;20.00;;
76608;SDS011;65928;53.936;27.540;2024-03-02T01:43:02;30.70;;;20.10;;
76608;SDS011;65928;53.936;27.540;2024-03-02T01:45:28;35.92;;;21.80;;
76608;SDS011;65928;53.936;27.540;2024-03-02T01:47:53;33.13;;;21.05;;
76608;SDS011;65928;53.936;27.540;2024-03-02T01:50:25;31.48;;;20.52;;
76608;SDS011;65928;53.936;27.540;2024-03-02T01:52:52;31.02;;;20.20;;
76608;SDS011;65928;53.936;27.540;2024-03-02T01:55:18;31.38;;;19.13;;
76608;SDS011;65928;53.936;27.540;2024-03-02T01:57:43;38.25;;;22.73;;
76608;SDS011;65928;53.936;27.540;2024-03-02T02:00:10;33.45;;;21.13;;
76608;SDS011;65928;53.936;27.540;2024-03-02T02:02:36;38.47;;;22.40;;
76608;SDS011;65928;53.936;27.540;2024-03-02T02:05:01;36.38;;;21.85;;
76608;SDS011;65928;53.936;27.540;2024-03-02T02:07:26;33.30;;;21.65;;
76608;SDS011;65928;53.936;27.540;2024-03-02T02:09:52;36.88;;;23.42;;
76608;SDS011;65928;53.936;27.540;2024-03-02T02:12:17;34.42;;;21.92;;
76608;SDS011;65928;53.936;27.540;2024-03-02T02:14:49;35.05;;;21.23;;
76608;SDS011;65928;53.936;27.540;2024-03-02T02:17:15;34.03;;;20.67;;
76608;SDS011;65928;53.936;27.540;2024-03-02T02:19:41;32.47;;;21.38;;
76608;SDS011;65928;53.936;27.540;2024-03-02T02:22:06;36.00;;;20.90;;
76608;SDS011;65928;53.936;27.540;2024-03-02T02:24:32;35.15;;;22.40;;
76608;SDS011;65928;53.936;27.540;2024-03-02T02:26:57;36.55;;;22.33;;
76608;SDS011;65928;53.936;27.540;2024-03-02T02:29:22;33.72;;;21.60;;
76608;SDS011;65928;53.936;27.540;2024-03-02T02:31:48;30.92;;;20.17;;
76608;SDS011;65928;53.936;27.540;2024-03-02T02:34:14;38.00;;;21.00;;
76608;SDS011;65928;53.936;27.540;2024-03-02T02:36:39;30.48;;;20.85;;
76608;SDS011;65928;53.936;27.540;2024-03-02T02:39:05;34.60;;;21.40;;
76608;SDS011;65928;53.936;27.540;2024-03-02T02:41:33;34.03;;;20.58;;
76608;SDS011;65928;53.936;27.540;2024-03-02T02:43:58;31.98;;;19.33;;
76608;SDS011;65928;53.936;27.540;2024-03-02T02:46:23;31.27;;;21.15;;
76608;SDS011;65928;53.936;27.540;2024-03-02T02:48:49;31.52;;;19.70;;
76608;SDS011;65928;53.936;27.540;2024-03-02T02:51:16;31.13;;;20.08;;
76608;SDS011;65928;53.936;27.540;2024-03-02T02:53:41;34.67;;;20.23;;
76608;SDS011;65928;53.936;27.540;2024-03-02T02:56:07;34.97;;;22.00;;
76608;SDS011;65928;53.936;27.540;2024-03-02T02:58:32;35.10;;;21.77;;
76608;SDS011;65928;53.936;27.540;2024-03-02T03:00:57;36.40;;;21.50;;
76608;SDS011;65928;53.936;27.540;2024-03-02T03:03:23;34.28;;;20.75;;
76608;SDS011;65928;53.936;27.540;2024-03-02T03:05:48;33.22;;;19.02;;
76608;SDS011;65928;53.936;27.540;2024-03-02T03:08:14;31.60;;;19.65;;
76608;SDS011;65928;53.936;27.540;2024-03-02T03:10:40;33.35;;;20.05;;
76608;SDS011;65928;53.936;27.540;2024-03-02T03:13:06;32.65;;;19.20;;
76608;SDS011;65928;53.936;27.540;2024-03-02T03:15:33;31.35;;;19.55;;
76608;SDS011;65928;53.936;27.540;2024-03-02T03:17:59;30.23;;;20.40;;
76608;SDS011;65928;53.936;27.540;2024-03-02T03:20:25;34.95;;;20.98;;
76608;SDS011;65928;53.936;27.540;2024-03-02T03:22:50;32.03;;;20.25;;
76608;SDS011;65928;53.936;27.540;2024-03-02T03:25:15;33.42;;;19.23;;
76608;SDS011;65928;53.936;27.540;2024-03-02T03:27:41;27.15;;;18.45;;
76608;SDS011;65928;53.936;27.540;2024-03-02T03:30:06;30.63;;;19.52;;
76608;SDS011;65928;53.936;27.540;2024-03-02T03:32:32;30.23;;;19.67;;
76608;SDS011;65928;53.936;27.540;2024-03-02T03:34:57;29.90;;;19.73;;
76608;SDS011;65928;53.936;27.540;2024-03-02T03:37:23;26.48;;;14.85;;
76608;SDS011;65928;53.936;27.540;2024-03-02T03:39:49;30.88;;;19.42;;
76608;SDS011;65928;53.936;27.540;2024-03-02T03:42:14;32.53;;;19.20;;
76608;SDS011;65928;53.936;27.540;2024-03-02T03:44:40;26.85;;;17.83;;
76608;SDS011;65928;53.936;27.540;2024-03-02T03:47:06;31.27;;;20.10;;
76608;SDS011;65928;53.936;27.540;2024-03-02T03:49:32;31.80;;;19.23;;
76608;SDS011;65928;53.936;27.540;2024-03-02T03:51:57;30.25;;;19.50;;
76608;SDS011;65928;53.936;27.540;2024-03-02T03:54:22;30.35;;;18.83;;
76608;SDS011;65928;53.936;27.540;2024-03-02T03:56:48;36.05;;;18.98;;
76608;SDS011;65928;53.936;27.540;2024-03-02T03:59:13;32.35;;;20.38;;
76608;SDS011;65928;53.936;27.540;2024-03-02T04:01:39;30.27;;;19.23;;
76608;SDS011;65928;53.936;27.540;2024-03-02T04:04:04;28.25;;;18.83;;
76608;SDS011;65928;53.936;27.540;2024-03-02T04:06:29;28.90;;;19.05;;
76608;SDS011;65928;53.936;27.540;2024-03-02T04:08:55;31.67;;;19.55;;
76608;SDS011;65928;53.936;27.540;2024-03-02T04:11:20;34.75;;;20.27;;
76608;SDS011;65928;53.936;27.540;2024-03-02T04:13:46;29.30;;;19.38;;
76608;SDS011;65928;53.936;27.540;2024-03-02T04:16:11;28.58;;;19.25;;
76608;SDS011;65928;53.936;27.540;2024-03-02T04:18:37;27.73;;;19.08;;
76608;SDS011;65928;53.936;27.540;2024-03-02T04:21:03;33.78;;;18.77;;
76608;SDS011;65928;53.936;27.540;2024-03-02T04:23:28;35.35;;;21.10;;
76608;SDS011;65928;53.936;27.540;2024-03-02T04:25:54;31.90;;;18.48;;
76608;SDS011;65928;53.936;27.540;2024-03-02T04:28:19;31.95;;;19.25;;
76608;SDS011;65928;53.936;27.540;2024-03-02T04:30:44;37.33;;;20.30;;
76608;SDS011;65928;53.936;27.540;2024-03-02T04:33:10;30.73;;;19.63;;
76608;SDS011;65928;53.936;27.540;2024-03-02T04:35:38;34.10;;;20.42;;
76608;SDS011;65928;53.936;27.540;2024-03-02T04:38:04;29.35;;;19.77;;
76608;SDS011;65928;53.936;27.540;2024-03-02T04:40:29;30.25;;;17.98;;
76608;SDS011;65928;53.936;27.540;2024-03-02T04:42:54;32.28;;;19.52;;
76608;SDS011;65928;53.936;27.540;2024-03-02T04:45:20;29.85;;;18.80;;
76608;SDS011;65928;53.936;27.540;2024-03-02T04:47:45;28.52;;;18.23;;
76608;SDS011;65928;53.936;27.540;2024-03-02T04:50:10;30.02;;;19.77;;
76608;SDS011;65928;53.936;27.540;2024-03-02T04:52:36;32.58;;;19.30;;
76608;SDS011;65928;53.936;27.540;2024-03-02T04:55:02;29.38;;;18.10;;
76608;SDS011;65928;53.936;27.540;2024-03-02T04:57:46;28.85;;;19.02;;
76608;SDS011;65928;53.936;27.540;2024-03-02T05:00:12;26.98;;;17.80;;
76608;SDS011;65928;53.936;27.540;2024-03-02T05:02:38;26.10;;;18.60;;
76608;SDS011;65928;53.936;27.540;2024-03-02T05:05:04;28.40;;;18.20;;
76608;SDS011;65928;53.936;27.540;2024-03-02T05:07:29;32.17;;;19.85;;
76608;SDS011;65928;53.936;27.540;2024-03-02T05:09:55;27.42;;;19.27;;
76608;SDS011;65928;53.936;27.540;2024-03-02T05:12:20;28.08;;;19.17;;
76608;SDS011;65928;53.936;27.540;2024-03-02T05:14:45;32.58;;;18.92;;
76608;SDS011;65928;53.936;27.540;2024-03-02T05:17:11;32.83;;;19.10;;
76608;SDS011;65928;53.936;27.540;2024-03-02T05:19:36;30.70;;;19.58;;
76608;SDS011;65928;53.936;27.540;2024-03-02T05:22:01;30.27;;;18.17;;
76608;SDS011;65928;53.936;27.540;2024-03-02T05:24:28;34.08;;;18.85;;
76608;SDS011;65928;53.936;27.540;2024-03-02T05:26:53;27.17;;;18.63;;
76608;SDS011;65928;53.936;27.540;2024-03-02T05:29:19;27.40;;;17.67;;
76608;SDS011;65928;53.936;27.540;2024-03-02T05:31:44;33.22;;;19.77;;
76608;SDS011;65928;53.936;27.540;2024-03-02T05:34:09;28.42;;;17.90;;
76608;SDS011;65928;53.936;27.540;2024-03-02T05:36:35;30.73;;;19.27;;
76608;SDS011;65928;53.936;27.540;2024-03-02T05:39:00;33.97;;;19.52;;
76608;SDS011;65928;53.936;27.540;2024-03-02T05:41:26;28.95;;;18.58;;
76608;SDS011;65928;53.936;27.540;2024-03-02T05:43:52;26.75;;;19.10;;
76608;SDS011;65928;53.936;27.540;2024-03-02T05:46:17;27.65;;;18.40;;
76608;SDS011;65928;53.936;27.540;2024-03-02T05:48:42;32.65;;;19.70;;
76608;SDS011;65928;53.936;27.540;2024-03-02T05:51:08;35.13;;;19.35;;
76608;SDS011;65928;53.936;27.540;2024-03-02T05:53:33;28.45;;;17.85;;
76608;SDS011;65928;53.936;27.540;2024-03-02T05:55:59;27.60;;;18.63;;
76608;SDS011;65928;53.936;27.540;2024-03-02T05:58:24;25.00;;;17.48;;
76608;SDS011;65928;53.936;27.540;2024-03-02T06:01:08;27.77;;;18.08;;
76608;SDS011;65928;53.936;27.540;2024-03-02T06:03:33;32.60;;;19.13;;
76608;SDS011;65928;53.936;27.540;2024-03-02T06:05:59;28.83;;;17.45;;
76608;SDS011;65928;53.936;27.540;2024-03-02T06:08:24;27.20;;;18.88;;
76608;SDS011;65928;53.936;27.540;2024-03-02T06:10:50;29.55;;;18.48;;
76608;SDS011;65928;53.936;27.540;2024-03-02T06:13:15;28.13;;;18.58;;
76608;SDS011;65928;53.936;27.540;2024-03-02T06:15:40;27.23;;;18.10;;
76608;SDS011;65928;53.936;27.540;2024-03-02T06:18:06;30.20;;;18.77;;
76608;SDS011;65928;53.936;27.540;2024-03-02T06:20:32;27.70;;;17.52;;
76608;SDS011;65928;53.936;27.540;2024-03-02T06:22:58;28.13;;;18.02;;
76608;SDS011;65928;53.936;27.540;2024-03-02T06:25:23;27.42;;;17.98;;
76608;SDS011;65928;53.936;27.540;2024-03-02T06:27:48;28.27;;;18.48;;
76608;SDS011;65928;53.936;27.540;2024-03-02T06:30:14;28.45;;;16.50;;
76608;SDS011;65928;53.936;27.540;2024-03-02T06:32:39;27.08;;;16.98;;
76608;SDS011;65928;53.936;27.540;2024-03-02T06:35:05;27.08;;;19.02;;
76608;SDS011;65928;53.936;27.540;2024-03-02T06:37:32;24.67;;;16.80;;
76608;SDS011;65928;53.936;27.540;2024-03-02T06:39:57;31.92;;;18.75;;
76608;SDS011;65928;53.936;27.540;2024-03-02T06:42:23;26.15;;;15.80;;
76608;SDS011;65928;53.936;27.540;2024-03-02T06:44:49;24.65;;;16.83;;
76608;SDS011;65928;53.936;27.540;2024-03-02T06:47:15;26.98;;;17.00;;
76608;SDS011;65928;53.936;27.540;2024-03-02T06:49:41;25.13;;;16.70;;
76608;SDS011;65928;53.936;27.540;2024-03-02T06:52:07;25.95;;;17.15;;
76608;SDS011;65928;53.936;27.540;2024-03-02T06:54:32;26.48;;;16.17;;
76608;SDS011;65928;53.936;27.540;2024-03-02T06:56:59;25.05;;;16.13;;
76608;SDS011;65928;53.936;27.540;2024-03-02T06:59:25;24.60;;;16.80;;
76608;SDS011;65928;53.936;27.540;2024-03-02T07:01:50;22.92;;;14.10;;
76608;SDS011;65928;53.936;27.540;2024-03-02T07:04:15;26.48;;;16.15;;
76608;SDS011;65928;53.936;27.540;2024-03-02T07:06:41;27.27;;;15.57;;
76608;SDS011;65928;53.936;27.540;2024-03-02T07:09:06;22.42;;;15.23;;
76608;SDS011;65928;53.936;27.540;2024-03-02T07:11:35;24.80;;;14.13;;
76608;SDS011;65928;53.936;27.540;2024-03-02T07:14:01;26.02;;;16.50;;
76608;SDS011;65928;53.936;27.540;2024-03-02T07:16:26;35.60;;;24.80;;
76608;SDS011;65928;53.936;27.540;2024-03-02T07:18:57;24.35;;;16.05;;
76608;SDS011;65928;53.936;27.540;2024-03-02T07:21:24;28.35;;;18.27;;
76608;SDS011;65928;53.936;27.540;2024-03-02T07:23:49;23.08;;;15.27;;
76608;SDS011;65928;53.936;27.540;2024-03-02T07:26:15;25.73;;;15.98;;
76608;SDS011;65928;53.936;27.540;2024-03-02T07:28:41;23.30;;;16.77;;
76608;SDS011;65928;53.936;27.540;2024-03-02T07:31:07;21.50;;;14.13;;
76608;SDS011;65928;53.936;27.540;2024-03-02T07:33:32;25.55;;;15.88;;
76608;SDS011;65928;53.936;27.540;2024-03-02T07:35:58;24.98;;;18.20;;
76608;SDS011;65928;53.936;27.540;2024-03-02T07:38:25;24.23;;;17.15;;
76608;SDS011;65928;53.936;27.540;2024-03-02T07:40:51;26.10;;;18.33;;
76608;SDS011;65928;53.936;27.540;2024-03-02T07:43:17;24.60;;;17.05;;
76608;SDS011;65928;53.936;27.540;2024-03-02T07:45:42;33.22;;;18.40;;
76608;SDS011;65928;53.936;27.540;2024-03-02T07:48:08;28.90;;;20.08;;
76608;SDS011;65928;53.936;27.540;2024-03-02T07:50:33;23.77;;;17.88;;
76608;SDS011;65928;53.936;27.540;2024-03-02T07:53:00;29.20;;;22.48;;
76608;SDS011;65928;53.936;27.540;2024-03-02T07:55:26;32.03;;;24.90;;
76608;SDS011;65928;53.936;27.540;2024-03-02T07:57:51;29.45;;;20.75;;
76608;SDS011;65928;53.936;27.540;2024-03-02T08:00:17;24.77;;;18.88;;
76608;SDS011;65928;53.936;27.540;2024-03-02T08:02:42;25.23;;;16.80;;
76608;SDS011;65928;53.936;27.540;2024-03-02T08:05:08;25.30;;;18.08;;
76608;SDS011;65928;53.936;27.540;2024-03-02T08:07:33;23.25;;;15.60;;
76608;SDS011;65928;53.936;27.540;2024-03-02T08:09:59;28.45;;;17.40;;
76608;SDS011;65928;53.936;27.540;2024-03-02T08:12:24;22.73;;;15.95;;
76608;SDS011;65928;53.936;27.540;2024-03-02T08:14:50;25.75;;;16.67;;
76608;SDS011;65928;53.936;27.540;2024-03-02T08:17:15;26.98;;;18.00;;
76608;SDS011;65928;53.936;27.540;2024-03-02T08:19:41;23.63;;;17.58;;
76608;SDS011;65928;53.936;27.540;2024-03-02T08:22:06;24.73;;;17.23;;
76608;SDS011;65928;53.936;27.540;2024-03-02T08:24:32;25.17;;;15.40;;
76608;SDS011;65928;53.936;27.540;2024-03-02T08:26:58;25.42;;;17.38;;
76608;SDS011;65928;53.936;27.540;2024-03-02T08:29:24;25.30;;;16.10;;
76608;SDS011;65928;53.936;27.540;2024-03-02T08:31:50;22.65;;;16.90;;
76608;SDS011;65928;53.936;27.540;2024-03-02T08:34:15;21.00;;;15.82;;
76608;SDS011;65928;53.936;27.540;2024-03-02T08:36:41;25.55;;;18.15;;
76608;SDS011;65928;53.936;27.540;2024-03-02T08:39:07;22.67;;;14.68;;
76608;SDS011;65928;53.936;27.540;2024-03-02T08:41:40;24.10;;;16.80;;
76608;SDS011;65928;53.936;27.540;2024-03-02T08:44:12;20.95;;;15.15;;
76608;SDS011;65928;53.936;27.540;2024-03-02T08:46:38;25.13;;;15.52;;
76608;SDS011;65928;53.936;27.540;2024-03-02T08:49:04;22.63;;;16.27;;
76608;SDS011;65928;53.936;27.540;2024-03-02T08:51:29;21.63;;;16.17;;
76608;SDS011;65928;53.936;27.540;2024-03-02T08:53:55;25.45;;;15.40;;
76608;SDS011;65928;53.936;27.540;2024-03-02T08:56:20;22.35;;;16.60;;
76608;SDS011;65928;53.936;27.540;2024-03-02T08:58:46;20.98;;;14.77;;
76608;SDS011;65928;53.936;27.540;2024-03-02T09:01:12;30.70;;;22.13;;
76608;SDS011;65928;53.936;27.540;2024-03-02T09:03:37;24.58;;;17.83;;
76608;SDS011;65928;53.936;27.540;2024-03-02T09:06:03;29.80;;;21.02;;
76608;SDS011;65928;53.936;27.540;2024-03-02T09:08:28;21.48;;;15.13;;
76608;SDS011;65928;53.936;27.540;2024-03-02T09:10:54;20.08;;;13.60;;
76608;SDS011;65928;53.936;27.540;2024-03-02T09:13:20;23.33;;;19.02;;
76608;SDS011;65928;53.936;27.540;2024-03-02T09:15:47;24.35;;;17.45;;
76608;SDS011;65928;53.936;27.540;2024-03-02T09:18:12;23.13;;;16.58;;
76608;SDS011;65928;53.936;27.540;2024-03-02T09:20:38;24.17;;;16.52;;
76608;SDS011;65928;53.936;27.540;2024-03-02T09:23:03;28.90;;;17.73;;
76608;SDS011;65928;53.936;27.540;2024-03-02T09:25:29;20.70;;;15.00;;
76608;SDS011;65928;53.936;27.540;2024-03-02T09:27:54;27.58;;;19.65;;
76608;SDS011;65928;53.936;27.540;2024-03-02T09:30:19;24.98;;;18.27;;
76608;SDS011;65928;53.936;27.540;2024-03-02T09:32:45;32.72;;;23.30;;
76608;SDS011;65928;53.936;27.540;2024-03-02T09:35:10;21.83;;;17.13;;
76608;SDS011;65928;53.936;27.540;2024-03-02T09:37:37;22.10;;;15.43;;
76608;SDS011;65928;53.936;27.540;2024-03-02T09:40:02;20.65;;;14.32;;
76608;SDS011;65928;53.936;27.540;2024-03-02T09:42:28;24.50;;;16.00;;
76608;SDS011;65928;53.936;27.540;2024-03-02T09:44:54;21.15;;;15.40;;
76608;SDS011;65928;53.936;27.540;2024-03-02T09:47:19;21.80;;;16.25;;
76608;SDS011;65928;53.936;27.540;2024-03-02T09:49:45;19.45;;;13.75;;
76608;SDS011;65928;53.936;27.540;2024-03-02T09:52:10;18.90;;;14.27;;
76608;SDS011;65928;53.936;27.540;2024-03-02T09:54:36;22.60;;;15.80;;
76608;SDS011;65928;53.936;27.540;2024-03-02T09:57:01;22.15;;;15.05;;
76608;SDS011;65928;53.936;27.540;2024-03-02T09:59:27;20.35;;;13.60;;
76608;SDS011;65928;53.936;27.540;2024-03-02T10:01:57;20.38;;;14.07;;
76608;SDS011;65928;53.936;27.540;2024-03-02T10:04:25;21.38;;;15.32;;
76608;SDS011;65928;53.936;27.540;2024-03-02T10:06:52;21.55;;;16.08;;
76608;SDS011;65928;53.936;27.540;2024-03-02T10:09:33;20.20;;;16.07;;
76608;SDS011;65928;53.936;27.540;2024-03-02T10:12:05;22.88;;;15.10;;
76608;SDS011;65928;53.936;27.540;2024-03-02T10:14:32;18.65;;;13.35;;
76608;SDS011;65928;53.936;27.540;2024-03-02T10:17:08;21.23;;;14.55;;
76608;SDS011;65928;53.936;27.540;2024-03-02T10:19:34;20.80;;;15.18;;
76608;SDS011;65928;53.936;27.540;2024-03-02T10:22:02;21.17;;;14.32;;
76608;SDS011;65928;53.936;27.540;2024-03-02T10:24:28;20.77;;;14.20;;
76608;SDS011;65928;53.936;27.540;2024-03-02T10:27:01;19.83;;;13.68;;
76608;SDS011;65928;53.936;27.540;2024-03-02T10:29:29;20.52;;;14.45;;
76608;SDS011;65928;53.936;27.540;2024-03-02T10:31:54;21.17;;;13.48;;
76608;SDS011;65928;53.936;27.540;2024-03-02T10:34:21;20.42;;;15.02;;
76608;SDS011;65928;53.936;27.540;2024-03-02T10:36:46;18.42;;;13.70;;
76608;SDS011;65928;53.936;27.540;2024-03-02T10:39:12;20.10;;;14.35;;
76608;SDS011;65928;53.936;27.540;2024-03-02T10:41:39;22.75;;;14.27;;
76608;SDS011;65928;53.936;27.540;2024-03-02T10:44:05;20.80;;;14.45;;
76608;SDS011;65928;53.936;27.540;2024-03-02T10:46:33;20.48;;;13.93;;
76608;SDS011;65928;53.936;27.540;2024-03-02T10:48:59;19.25;;;12.68;;
76608;SDS011;65928;53.936;27.540;2024-03-02T10:51:25;18.80;;;13.68;;
76608;SDS011;65928;53.936;27.540;2024-03-02T10:53:56;23.08;;;13.90;;
76608;SDS011;65928;53.936;27.540;2024-03-02T10:56:29;18.77;;;12.60;;
76608;SDS011;65928;53.936;27.540;2024-03-02T11:01:24;20.05;;;13.60;;
76608;SDS011;65928;53.936;27.540;2024-03-02T11:03:50;19.63;;;14.90;;
76608;SDS011;65928;53.936;27.540;2024-03-02T11:06:16;16.13;;;13.77;;
76608;SDS011;65928;53.936;27.540;2024-03-02T11:08:41;20.63;;;13.73;;
76608;SDS011;65928;53.936;27.540;2024-03-02T11:11:11;19.15;;;12.38;;
76608;SDS011;65928;53.936;27.540;2024-03-02T11:13:40;17.88;;;12.27;;
76608;SDS011;65928;53.936;27.540;2024-03-02T11:16:09;26.45;;;11.38;;
76608;SDS011;65928;53.936;27.540;2024-03-02T11:18:37;21.27;;;11.27;;
76608;SDS011;65928;53.936;27.540;2024-03-02T11:21:03;14.10;;;10.23;;
76608;SDS011;65928;53.936;27.540;2024-03-02T11:23:32;19.05;;;12.30;;
76608;SDS011;65928;53.936;27.540;2024-03-02T11:26:31;19.35;;;12.95;;
76608;SDS011;65928;53.936;27.540;2024-03-02T11:28:50;18.90;;;11.70;;
76608;SDS011;65928;53.936;27.540;2024-03-02T11:31:15;17.65;;;12.35;;
76608;SDS011;65928;53.936;27.540;2024-03-02T11:33:41;17.23;;;12.48;;
76608;SDS011;65928;53.936;27.540;2024-03-02T11:36:07;19.48;;;12.65;;
76608;SDS011;65928;53.936;27.540;2024-03-02T11:38:33;16.20;;;11.98;;
76608;SDS011;65928;53.936;27.540;2024-03-02T11:41:00;16.45;;;11.77;;
76608;SDS011;65928;53.936;27.540;2024-03-02T11:43:30;17.60;;;12.10;;
76608;SDS011;65928;53.936;27.540;2024-03-02T11:46:03;17.08;;;12.20;;
76608;SDS011;65928;53.936;27.540;2024-03-02T11:48:32;21.00;;;13.73;;
76608;SDS011;65928;53.936;27.540;2024-03-02T11:51:00;18.95;;;13.45;;
76608;SDS011;65928;53.936;27.540;2024-03-02T11:53:26;20.23;;;14.05;;
76608;SDS011;65928;53.936;27.540;2024-03-02T11:55:53;18.45;;;12.27;;
76608;SDS011;65928;53.936;27.540;2024-03-02T11:58:20;22.27;;;16.00;;
76608;SDS011;65928;53.936;27.540;2024-03-02T12:00:57;24.00;;;15.40;;
76608;SDS011;65928;53.936;27.540;2024-03-02T12:03:23;20.75;;;14.00;;
76608;SDS011;65928;53.936;27.540;2024-03-02T12:05:50;24.67;;;13.13;;
76608;SDS011;65928;53.936;27.540;2024-03-02T12:08:17;19.52;;;12.23;;
76608;SDS011;65928;53.936;27.540;2024-03-02T12:10:42;15.00;;;10.60;;
76608;SDS011;65928;53.936;27.540;2024-03-02T12:13:09;17.65;;;11.57;;
76608;SDS011;65928;53.936;27.540;2024-03-02T12:15:38;18.15;;;11.70;;
76608;SDS011;65928;53.936;27.540;2024-03-02T12:18:04;14.63;;;11.15;;
76608;SDS011;65928;53.936;27.540;2024-03-02T12:20:30;17.98;;;12.15;;
76608;SDS011;65928;53.936;27.540;2024-03-02T12:23:00;15.98;;;11.60;;
76608;SDS011;65928;53.936;27.540;2024-03-02T12:25:27;16.73;;;11.90;;
76608;SDS011;65928;53.936;27.540;2024-03-02T12:27:56;19.05;;;13.50;;
76608;SDS011;65928;53.936;27.540;2024-03-02T12:30:23;21.20;;;19.00;;
76608;SDS011;65928;53.936;27.540;2024-03-02T12:32:49;14.35;;;11.57;;
76608;SDS011;65928;53.936;27.540;2024-03-02T12:35:15;19.95;;;12.55;;
76608;SDS011;65928;53.936;27.540;2024-03-02T12:40:09;31.05;;;14.52;;
76608;SDS011;65928;53.936;27.540;2024-03-02T12:42:41;16.92;;;13.77;;
76608;SDS011;65928;53.936;27.540;2024-03-02T12:45:07;18.63;;;12.35;;
76608;SDS011;65928;53.936;27.540;2024-03-02T12:47:33;19.33;;;12.50;;
76608;SDS011;65928;53.936;27.540;2024-03-02T12:49:59;18.38;;;12.95;;
76608;SDS011;65928;53.936;27.540;2024-03-02T12:52:25;17.92;;;12.32;;
76608;SDS011;65928;53.936;27.540;2024-03-02T12:54:50;17.67;;;12.95;;
76608;SDS011;65928;53.936;27.540;2024-03-02T12:57:18;17.42;;;13.45;;
76608;SDS011;65928;53.936;27.540;2024-03-02T12:59:46;20.75;;;13.77;;
76608;SDS011;65928;53.936;27.540;2024-03-02T13:02:18;14.68;;;10.38;;
76608;SDS011;65928;53.936;27.540;2024-03-02T13:04:44;15.18;;;10.88;;
76608;SDS011;65928;53.936;27.540;2024-03-02T13:09:42;15.23;;;12.93;;
76608;SDS011;65928;53.936;27.540;2024-03-02T13:12:08;19.25;;;11.45;;
76608;SDS011;65928;53.936;27.540;2024-03-02T13:14:36;18.50;;;11.18;;
76608;SDS011;65928;53.936;27.540;2024-03-02T13:17:01;16.02;;;11.90;;
76608;SDS011;65928;53.936;27.540;2024-03-02T13:19:30;16.92;;;11.20;;
76608;SDS011;65928;53.936;27.540;2024-03-02T13:21:56;20.92;;;14.45;;
76608;SDS011;65928;53.936;27.540;2024-03-02T13:24:22;21.95;;;15.35;;
76608;SDS011;65928;53.936;27.540;2024-03-02T13:26:50;17.77;;;13.27;;
76608;SDS011;65928;53.936;27.540;2024-03-02T13:29:20;18.63;;;13.23;;
76608;SDS011;65928;53.936;27.540;2024-03-02T13:31:46;16.08;;;12.90;;
76608;SDS011;65928;53.936;27.540;2024-03-02T13:34:11;16.30;;;11.60;;
76608;SDS011;65928;53.936;27.540;2024-03-02T13:36:37;16.95;;;13.88;;
76608;SDS011;65928;53.936;27.540;2024-03-02T13:39:03;21.73;;;16.40;;
76608;SDS011;65928;53.936;27.540;2024-03-02T13:41:30;16.98;;;13.15;;
76608;SDS011;65928;53.936;27.540;2024-03-02T13:43:56;18.85;;;12.23;;
76608;SDS011;65928;53.936;27.540;2024-03-02T13:46:21;17.25;;;12.48;;
76608;SDS011;65928;53.936;27.540;2024-03-02T13:48:47;18.58;;;12.52;;
76608;SDS011;65928;53.936;27.540;2024-03-02T13:51:12;20.40;;;14.32;;
76608;SDS011;65928;53.936;27.540;2024-03-02T13:53:37;19.00;;;13.35;;
76608;SDS011;65928;53.936;27.540;2024-03-02T13:56:03;18.27;;;13.00;;
76608;SDS011;65928;53.936;27.540;2024-03-02T13:58:28;25.52;;;21.90;;
76608;SDS011;65928;53.936;27.540;2024-03-02T14:00:54;21.75;;;16.38;;
76608;SDS011;65928;53.936;27.540;2024-03-02T14:03:21;15.85;;;12.52;;
76608;SDS011;65928;53.936;27.540;2024-03-02T14:05:46;16.15;;;11.93;;
76608;SDS011;65928;53.936;27.540;2024-03-02T14:08:12;17.48;;;12.15;;
76608;SDS011;65928;53.936;27.540;2024-03-02T14:10:38;18.50;;;13.55;;
76608;SDS011;65928;53.936;27.540;2024-03-02T14:13:03;20.67;;;12.93;;